createdAt,value
2023-09-10T00:00:48.503Z,15.80
2023-09-10T00:03:16.763Z,13.60
2023-09-10T00:05:45.127Z,11.37
2023-09-10T00:08:13.219Z,13.75
2023-09-10T00:10:43.199Z,15.75
2023-09-10T00:13:12.006Z,14.87
2023-09-10T00:15:41.406Z,13.00
2023-09-10T00:18:09.546Z,15.32
2023-09-10T00:20:38.372Z,13.48
2023-09-10T00:23:07.146Z,13.60
2023-09-10T00:25:36.073Z,12.40
2023-09-10T00:28:04.959Z,14.23
2023-09-10T00:30:31.991Z,13.13
2023-09-10T00:33:01.605Z,12.43
2023-09-10T00:35:29.864Z,16.45
2023-09-10T00:38:00.508Z,16.25
2023-09-10T00:40:31.205Z,13.20
2023-09-10T00:42:59.373Z,14.70
2023-09-10T00:45:27.556Z,12.50
2023-09-10T00:47:56.243Z,19.02
2023-09-10T00:50:26.107Z,15.20
2023-09-10T00:52:57.674Z,16.70
2023-09-10T00:55:30.174Z,14.10
2023-09-10T00:57:59.182Z,18.43
2023-09-10T01:00:28.443Z,18.10
2023-09-10T01:02:57.292Z,16.02
2023-09-10T01:05:27.087Z,17.13
2023-09-10T01:07:56.308Z,16.45
2023-09-10T01:10:31.687Z,16.63
2023-09-10T01:13:09.326Z,17.50
2023-09-10T01:15:45.123Z,17.15
2023-09-10T01:18:22.715Z,16.42
2023-09-10T01:21:16.432Z,17.25
2023-09-10T01:23:53.056Z,17.40
2023-09-10T01:26:22.491Z,17.60
2023-09-10T01:28:51.142Z,16.83
2023-09-10T01:31:20.049Z,18.23
2023-09-10T01:33:53.151Z,20.23
2023-09-10T01:36:31.798Z,17.73
2023-09-10T01:39:06.609Z,19.33
2023-09-10T01:41:37.600Z,18.63
2023-09-10T01:44:07.789Z,18.03
2023-09-10T01:46:38.440Z,18.55
2023-09-10T01:49:08.431Z,19.43
2023-09-10T01:51:36.587Z,17.90
2023-09-10T01:54:05.036Z,22.70
2023-09-10T01:56:33.231Z,20.35
2023-09-10T01:59:02.704Z,20.77
2023-09-10T02:01:30.959Z,21.13
2023-09-10T02:03:59.140Z,23.45
2023-09-10T02:06:27.800Z,22.65
2023-09-10T02:08:55.873Z,22.75
2023-09-10T02:11:23.952Z,24.60
2023-09-10T02:13:52.040Z,21.43
2023-09-10T02:16:21.830Z,22.75
2023-09-10T02:18:49.945Z,22.93
2023-09-10T02:21:21.304Z,23.00
2023-09-10T02:23:49.448Z,21.88
2023-09-10T02:26:18.302Z,22.73
2023-09-10T02:28:46.445Z,19.70
2023-09-10T02:31:14.915Z,20.45
2023-09-10T02:33:44.369Z,24.55
2023-09-10T02:36:12.399Z,27.75
2023-09-10T02:38:40.690Z,27.75
2023-09-10T02:41:09.346Z,26.27
2023-09-10T02:43:37.660Z,26.75
2023-09-10T02:46:05.811Z,30.17
2023-09-10T02:48:33.986Z,25.95
2023-09-10T02:51:03.417Z,27.73
2023-09-10T02:53:31.514Z,24.45
2023-09-10T02:56:03.223Z,26.30
2023-09-10T02:58:31.753Z,27.38
2023-09-10T03:01:05.635Z,25.33
2023-09-10T03:03:34.293Z,29.63
2023-09-10T03:06:03.959Z,28.73
2023-09-10T03:08:37.133Z,29.60
2023-09-10T03:11:06.146Z,25.75
2023-09-10T03:13:34.314Z,26.23
2023-09-10T03:16:02.479Z,28.77
2023-09-10T03:18:30.673Z,31.92
2023-09-10T03:20:58.975Z,28.08
2023-09-10T03:23:28.476Z,27.40
2023-09-10T03:25:56.627Z,26.50
2023-09-10T03:28:28.145Z,25.02
2023-09-10T03:30:59.631Z,26.27
2023-09-10T03:33:28.526Z,25.27
2023-09-10T03:35:56.673Z,27.10
2023-09-10T03:38:24.944Z,30.67
2023-09-10T03:40:54.633Z,26.90
2023-09-10T03:43:25.041Z,29.38
2023-09-10T03:45:54.393Z,25.42
2023-09-10T03:48:23.600Z,28.33
2023-09-10T03:50:51.879Z,27.17
2023-09-10T03:53:20.109Z,30.00
2023-09-10T03:55:48.995Z,32.30
2023-09-10T03:58:20.081Z,26.30
2023-09-10T04:00:48.404Z,28.92
2023-09-10T04:03:17.334Z,28.30
2023-09-10T04:05:45.730Z,26.80
2023-09-10T04:08:13.876Z,25.50
2023-09-10T04:10:42.588Z,27.90
2023-09-10T04:13:11.111Z,27.83
2023-09-10T04:15:40.617Z,26.98
2023-09-10T04:18:09.805Z,26.48
2023-09-10T04:20:37.991Z,25.77
2023-09-10T04:23:06.277Z,31.65
2023-09-10T04:25:35.431Z,28.48
2023-09-10T04:28:03.582Z,24.35
2023-09-10T04:30:32.852Z,28.25
2023-09-10T04:33:03.553Z,24.40
2023-09-10T04:35:32.084Z,28.27
2023-09-10T04:38:00.380Z,22.88
2023-09-10T04:40:28.636Z,28.20
2023-09-10T04:42:56.850Z,26.60
2023-09-10T04:45:25.336Z,29.07
2023-09-10T04:47:53.635Z,26.52
2023-09-10T04:50:23.528Z,25.05
2023-09-10T04:52:51.930Z,25.10
2023-09-10T04:55:20.290Z,29.98
2023-09-10T04:57:49.316Z,29.60
2023-09-10T05:00:18.403Z,27.33
2023-09-10T05:02:48.255Z,29.45
2023-09-10T05:05:17.015Z,29.23
2023-09-10T05:07:49.890Z,28.90
2023-09-10T05:10:19.141Z,33.92
2023-09-10T05:12:47.688Z,33.28
2023-09-10T05:15:16.115Z,29.65
2023-09-10T05:17:45.453Z,34.47
2023-09-10T05:20:16.522Z,31.73
2023-09-10T05:22:46.722Z,33.50
2023-09-10T05:25:14.929Z,30.38
2023-09-10T05:27:43.897Z,33.53
2023-09-10T05:30:12.657Z,31.95
2023-09-10T05:32:41.487Z,29.35
2023-09-10T05:35:10.480Z,29.13
2023-09-10T05:37:39.655Z,28.27
2023-09-10T05:40:12.356Z,29.55
2023-09-10T05:42:40.525Z,28.75
2023-09-10T05:45:09.897Z,27.90
2023-09-10T05:47:38.109Z,25.48
2023-09-10T05:50:07.515Z,31.92
2023-09-10T05:52:35.693Z,26.10
2023-09-10T05:55:04.150Z,25.27
2023-09-10T05:57:33.804Z,27.30
2023-09-10T06:00:02.051Z,25.08
2023-09-10T06:02:32.266Z,23.17
2023-09-10T06:05:00.801Z,28.23
2023-09-10T06:07:29.190Z,25.93
2023-09-10T06:09:57.438Z,24.80
2023-09-10T06:12:25.567Z,23.23
2023-09-10T06:14:55.226Z,23.10
2023-09-10T06:17:23.477Z,25.65
2023-09-10T06:19:52.526Z,22.98
2023-09-10T06:22:20.731Z,20.95
2023-09-10T06:24:48.992Z,23.00
2023-09-10T06:27:17.313Z,18.88
2023-09-10T06:29:45.509Z,23.50
2023-09-10T06:32:15.376Z,26.30
2023-09-10T06:34:43.794Z,20.23
2023-09-10T06:37:12.399Z,21.48
2023-09-10T06:39:40.800Z,20.55
2023-09-10T06:42:10.299Z,20.20
2023-09-10T06:44:43.673Z,19.85
2023-09-10T06:47:12.193Z,18.23
2023-09-10T06:49:43.475Z,17.90
2023-09-10T06:52:12.120Z,20.50
2023-09-10T06:54:40.273Z,19.37
2023-09-10T06:57:08.341Z,18.17
2023-09-10T06:59:36.565Z,19.35
2023-09-10T07:02:05.275Z,15.88
2023-09-10T07:04:33.429Z,19.15
2023-09-10T07:07:03.150Z,15.80
2023-09-10T07:09:31.449Z,22.38
2023-09-10T07:11:59.657Z,31.15
2023-09-10T07:14:27.888Z,20.13
2023-09-10T07:16:56.063Z,82.00
2023-09-10T07:19:24.240Z,16.25
2023-09-10T07:21:52.548Z,18.55
2023-09-10T07:24:22.081Z,17.45
2023-09-10T07:26:50.202Z,18.05
2023-09-10T07:29:18.784Z,19.80
2023-09-10T07:31:47.112Z,20.43
2023-09-10T07:34:15.419Z,13.97
2023-09-10T07:36:45.260Z,16.45
2023-09-10T07:39:13.597Z,17.80
2023-09-10T07:41:43.097Z,15.63
2023-09-10T07:44:11.317Z,18.10
2023-09-10T07:46:39.481Z,15.73
2023-09-10T07:49:07.721Z,19.40
2023-09-10T07:51:35.809Z,15.57
2023-09-10T07:54:03.929Z,17.85
2023-09-10T07:56:32.104Z,22.00
2023-09-10T07:59:01.668Z,16.55
2023-09-10T08:01:29.858Z,15.98
2023-09-10T08:03:58.024Z,18.45
2023-09-10T08:06:26.263Z,15.15
2023-09-10T08:08:54.533Z,20.20
2023-09-10T08:11:22.729Z,16.65
2023-09-10T08:13:50.938Z,18.58
2023-09-10T08:16:20.539Z,18.10
2023-09-10T08:18:48.702Z,20.00
2023-09-10T08:21:16.946Z,17.52
2023-09-10T08:23:46.103Z,17.40
2023-09-10T08:26:14.694Z,18.50
2023-09-10T08:28:42.823Z,17.83
2023-09-10T08:31:11.058Z,19.60
2023-09-10T08:33:40.583Z,21.07
2023-09-10T08:36:08.695Z,16.53
2023-09-10T08:38:36.957Z,17.10
2023-09-10T08:41:14.435Z,16.95
2023-09-10T08:43:49.017Z,22.63
2023-09-10T08:46:17.348Z,14.60
2023-09-10T08:48:47.787Z,16.77
2023-09-10T08:51:17.721Z,18.80
2023-09-10T08:53:46.778Z,17.17
2023-09-10T08:56:16.198Z,16.00
2023-09-10T08:58:45.180Z,18.53
2023-09-10T09:01:14.946Z,15.57
2023-09-10T09:03:43.656Z,14.60
2023-09-10T09:06:13.238Z,14.82
2023-09-10T09:08:46.853Z,16.00
2023-09-10T09:11:15.819Z,20.30
2023-09-10T09:13:46.687Z,16.40
2023-09-10T09:16:16.144Z,14.65
2023-09-10T09:18:45.515Z,22.95
2023-09-10T09:21:20.200Z,17.07
2023-09-10T09:23:53.212Z,22.17
2023-09-10T09:26:23.731Z,15.40
2023-09-10T09:28:52.263Z,17.25
2023-09-10T09:31:22.635Z,13.88
2023-09-10T09:33:51.922Z,15.45
2023-09-10T09:36:21.507Z,20.67
2023-09-10T09:38:51.180Z,17.77
2023-09-10T09:41:20.116Z,14.93
2023-09-10T09:43:48.837Z,13.52
2023-09-10T09:46:18.442Z,12.35
2023-09-10T09:48:46.687Z,12.90
2023-09-10T09:51:16.938Z,14.25
2023-09-10T09:53:47.141Z,13.68
2023-09-10T09:56:18.710Z,11.65
2023-09-10T09:58:47.391Z,16.77
2023-09-10T10:01:17.296Z,13.85
2023-09-10T10:03:45.521Z,10.63
2023-09-10T10:06:17.744Z,11.00
2023-09-10T10:08:51.628Z,10.70
2023-09-10T10:11:29.348Z,11.02
2023-09-10T10:13:59.109Z,10.23
2023-09-10T10:16:28.555Z,8.38
2023-09-10T10:18:57.602Z,8.95
2023-09-10T10:21:26.075Z,14.65
2023-09-10T10:23:57.301Z,10.40
2023-09-10T10:26:26.254Z,11.18
2023-09-10T10:28:55.709Z,10.40
2023-09-10T10:31:26.714Z,8.20
2023-09-10T10:34:03.779Z,11.97
2023-09-10T10:36:38.484Z,7.20
2023-09-10T10:39:11.770Z,8.70
2023-09-10T10:41:45.008Z,10.18
2023-09-10T10:44:21.500Z,9.50
2023-09-10T10:46:56.216Z,10.57
2023-09-10T10:49:25.395Z,20.73
2023-09-10T10:52:01.532Z,11.95
2023-09-10T10:54:32.237Z,10.65
2023-09-10T10:57:00.657Z,9.50
2023-09-10T10:59:29.183Z,16.48
2023-09-10T11:02:23.162Z,15.10
2023-09-10T11:05:02.787Z,11.13
2023-09-10T11:07:31.584Z,12.68
2023-09-10T11:10:02.355Z,15.73
2023-09-10T11:12:30.825Z,11.35
2023-09-10T11:15:13.668Z,11.80
2023-09-10T11:17:42.131Z,12.70
2023-09-10T11:20:10.942Z,12.90
2023-09-10T11:23:11.074Z,14.80
2023-09-10T11:25:42.510Z,15.00
2023-09-10T11:28:42.134Z,16.23
2023-09-10T11:31:31.445Z,14.38
2023-09-10T11:34:19.629Z,15.98
2023-09-10T11:36:52.208Z,14.90
2023-09-10T11:39:21.544Z,21.38
2023-09-10T11:41:52.966Z,20.77
2023-09-10T11:44:21.692Z,18.83
2023-09-10T11:46:52.887Z,21.08
2023-09-10T11:49:21.892Z,22.02
2023-09-10T11:51:51.472Z,21.13
2023-09-10T11:54:21.117Z,13.05
2023-09-10T11:56:52.362Z,28.05
2023-09-10T11:59:24.738Z,17.17
2023-09-10T12:01:55.642Z,18.30
2023-09-10T12:04:28.913Z,28.48
2023-09-10T12:06:57.046Z,23.45
2023-09-10T12:09:25.829Z,16.40
2023-09-10T12:11:56.514Z,22.60
2023-09-10T12:14:25.578Z,18.77
2023-09-10T12:16:53.963Z,31.57
2023-09-10T12:19:22.743Z,21.60
2023-09-10T12:21:51.856Z,29.35
2023-09-10T12:24:20.826Z,22.92
2023-09-10T12:26:49.400Z,21.35
2023-09-10T12:29:19.178Z,34.35
2023-09-10T12:31:47.295Z,15.48
2023-09-10T12:34:17.266Z,21.13
2023-09-10T12:36:46.215Z,20.83
2023-09-10T12:39:20.391Z,11.35
2023-09-10T12:41:50.758Z,20.20
2023-09-10T12:44:21.329Z,14.10
2023-09-10T12:46:50.438Z,16.33
2023-09-10T12:49:18.646Z,16.70
2023-09-10T12:51:47.204Z,16.17
2023-09-10T12:54:16.836Z,16.50
2023-09-10T12:56:49.419Z,16.47
2023-09-10T12:59:17.589Z,16.30
2023-09-10T13:01:47.075Z,15.32
2023-09-10T13:04:15.239Z,11.05
2023-09-10T13:06:43.335Z,10.07
2023-09-10T13:09:11.444Z,13.73
2023-09-10T13:11:39.546Z,16.95
2023-09-10T13:14:07.730Z,17.48
2023-09-10T13:16:36.110Z,14.50
2023-09-10T13:19:06.086Z,19.40
2023-09-10T13:21:34.246Z,27.80
2023-09-10T13:24:02.716Z,14.55
2023-09-10T13:26:31.261Z,19.20
2023-09-10T13:28:59.389Z,11.47
2023-09-10T13:31:29.453Z,12.13
2023-09-10T13:33:58.004Z,18.45
2023-09-10T13:36:28.256Z,13.35
2023-09-10T13:38:56.345Z,13.27
2023-09-10T13:41:25.246Z,13.88
2023-09-10T13:43:57.379Z,10.93
2023-09-10T13:46:25.989Z,13.27
2023-09-10T13:48:54.152Z,15.70
2023-09-10T13:51:22.469Z,17.27
2023-09-10T13:53:51.913Z,17.80
2023-09-10T13:56:20.038Z,14.20
2023-09-10T13:58:48.111Z,9.75
2023-09-10T14:01:16.346Z,16.13
2023-09-10T14:03:45.500Z,19.25
2023-09-10T14:06:13.711Z,13.23
2023-09-10T14:08:42.155Z,9.52
2023-09-10T14:11:11.880Z,14.48
2023-09-10T14:13:40.122Z,12.35
2023-09-10T14:16:08.502Z,12.35
2023-09-10T14:18:38.660Z,14.37
2023-09-10T14:21:07.001Z,17.83
2023-09-10T14:23:35.483Z,10.07
2023-09-10T14:26:04.358Z,22.10
2023-09-10T14:28:34.176Z,12.80
2023-09-10T14:31:03.620Z,15.88
2023-09-10T14:33:31.896Z,11.88
2023-09-10T14:36:00.763Z,13.13
2023-09-10T14:38:29.026Z,14.30
2023-09-10T14:40:57.183Z,14.90
2023-09-10T14:43:25.739Z,11.82
2023-09-10T14:45:56.376Z,13.90
2023-09-10T14:48:24.735Z,12.75
2023-09-10T14:50:53.357Z,14.70
2023-09-10T14:53:21.565Z,15.80
2023-09-10T14:55:49.696Z,9.80
2023-09-10T14:58:17.748Z,9.93
2023-09-10T15:00:45.836Z,9.45
2023-09-10T15:03:15.400Z,12.50
2023-09-10T15:05:44.765Z,19.00
2023-09-10T15:08:12.897Z,12.60
2023-09-10T15:10:41.179Z,11.45
2023-09-10T15:13:09.242Z,16.60
2023-09-10T15:15:37.624Z,13.60
2023-09-10T15:18:06.303Z,13.70
2023-09-10T15:20:35.988Z,17.33
2023-09-10T15:23:04.166Z,14.75
2023-09-10T15:25:32.304Z,19.45
2023-09-10T15:28:00.401Z,12.70
2023-09-10T15:30:28.530Z,14.75
2023-09-10T15:32:56.807Z,15.10
2023-09-10T15:35:25.093Z,12.50
2023-09-10T15:37:55.268Z,14.80
2023-09-10T15:40:25.261Z,10.73
2023-09-10T15:42:53.333Z,10.73
2023-09-10T15:45:21.498Z,10.18
2023-09-10T15:47:49.822Z,8.70
2023-09-10T15:50:18.004Z,8.88
2023-09-10T15:52:46.134Z,15.05
2023-09-10T15:55:15.623Z,12.60
2023-09-10T15:57:43.737Z,14.85
2023-09-10T16:00:12.565Z,10.17
2023-09-10T16:02:41.976Z,11.40
2023-09-10T16:05:10.630Z,14.82
2023-09-10T16:07:39.126Z,13.73
2023-09-10T16:10:09.276Z,18.88
2023-09-10T16:12:38.796Z,13.05
2023-09-10T16:15:07.654Z,8.57
2023-09-10T16:17:35.866Z,9.77
2023-09-10T16:20:05.570Z,14.97
2023-09-10T16:22:35.600Z,14.77
2023-09-10T16:25:04.439Z,14.10
2023-09-10T16:27:32.560Z,12.90
2023-09-10T16:30:02.577Z,10.10
2023-09-10T16:32:30.835Z,15.27
2023-09-10T16:34:59.294Z,11.50
2023-09-10T16:37:27.386Z,16.50
2023-09-10T16:39:55.640Z,25.25
2023-09-10T16:42:23.821Z,17.97
2023-09-10T16:44:54.870Z,14.98
2023-09-10T16:47:24.594Z,13.65
2023-09-10T16:49:52.755Z,12.60
2023-09-10T16:52:21.359Z,18.95
2023-09-10T16:54:49.453Z,14.40
2023-09-10T16:57:17.974Z,14.30
2023-09-10T16:59:48.607Z,7.63
2023-09-10T17:02:17.116Z,11.75
2023-09-10T17:04:46.755Z,12.23
2023-09-10T17:07:15.913Z,12.77
2023-09-10T17:09:44.405Z,16.55
2023-09-10T17:12:12.590Z,16.60
2023-09-10T17:14:40.687Z,12.25
2023-09-10T17:17:11.888Z,10.45
2023-09-10T17:19:40.181Z,17.20
2023-09-10T17:22:09.617Z,13.25
2023-09-10T17:24:38.517Z,12.52
2023-09-10T17:27:07.682Z,10.95
2023-09-10T17:29:35.994Z,14.87
2023-09-10T17:32:04.266Z,11.65
2023-09-10T17:34:32.496Z,16.50
2023-09-10T17:37:00.646Z,14.02
2023-09-10T17:39:30.145Z,14.38
2023-09-10T17:41:58.239Z,9.02
2023-09-10T17:44:26.435Z,13.63
2023-09-10T17:46:56.846Z,14.20
2023-09-10T17:49:25.098Z,15.15
2023-09-10T17:51:53.364Z,13.63
2023-09-10T17:54:21.632Z,11.70
2023-09-10T17:56:51.120Z,15.30
2023-09-10T17:59:19.318Z,15.68
2023-09-10T18:01:47.607Z,11.07
2023-09-10T18:04:15.913Z,12.30
2023-09-10T18:06:44.276Z,12.10
2023-09-10T18:09:12.450Z,16.07
2023-09-10T18:11:40.677Z,11.55
2023-09-10T18:14:10.373Z,16.40
2023-09-10T18:16:39.444Z,16.27
2023-09-10T18:19:08.518Z,13.90
2023-09-10T18:21:37.148Z,17.15
2023-09-10T18:24:05.791Z,12.70
2023-09-10T18:26:33.977Z,15.50
2023-09-10T18:29:02.088Z,26.43
2023-09-10T18:31:33.049Z,15.60
2023-09-10T18:34:01.288Z,11.90
2023-09-10T18:36:29.334Z,19.23
2023-09-10T18:38:57.454Z,16.77
2023-09-10T18:41:25.603Z,14.20
2023-09-10T18:43:53.751Z,19.27
2023-09-10T18:46:21.853Z,15.55
2023-09-10T18:48:51.441Z,19.85
2023-09-10T18:51:19.687Z,17.08
2023-09-10T18:53:48.968Z,14.43
2023-09-10T18:56:17.954Z,21.13
2023-09-10T18:58:46.045Z,16.10
2023-09-10T19:01:14.207Z,18.52
2023-09-10T19:03:43.309Z,12.07
2023-09-10T19:06:13.836Z,16.05
2023-09-10T19:08:41.922Z,16.00
2023-09-10T19:11:10.091Z,20.25
2023-09-10T19:13:39.010Z,15.95
2023-09-10T19:16:07.332Z,16.52
2023-09-10T19:18:35.597Z,15.57
2023-09-10T19:21:03.787Z,15.32
2023-09-10T19:23:33.240Z,18.25
2023-09-10T19:26:01.361Z,19.73
2023-09-10T19:28:29.458Z,15.90
2023-09-10T19:30:57.605Z,15.98
2023-09-10T19:33:25.793Z,19.70
2023-09-10T19:35:53.973Z,15.55
2023-09-10T19:38:23.638Z,12.98
2023-09-10T19:40:53.353Z,15.30
2023-09-10T19:43:22.863Z,15.63
2023-09-10T19:45:53.051Z,18.55
2023-09-10T19:48:23.060Z,17.58
2023-09-10T19:50:59.013Z,15.02
2023-09-10T19:53:27.175Z,16.37
2023-09-10T19:56:05.024Z,12.48
2023-09-10T19:58:35.074Z,14.52
2023-09-10T20:01:03.557Z,14.82
2023-09-10T20:03:32.197Z,17.52
2023-09-10T20:06:00.584Z,13.88
2023-09-10T20:08:28.937Z,12.85
2023-09-10T20:19:16.884Z,12.02
2023-09-10T20:21:46.843Z,11.45
2023-09-10T20:24:15.061Z,12.18
2023-09-10T20:26:43.770Z,22.73
2023-09-10T20:29:12.081Z,13.27
2023-09-10T20:31:40.992Z,15.73
2023-09-10T20:34:09.132Z,10.85
2023-09-10T20:36:38.755Z,21.03
2023-09-10T20:39:07.030Z,13.38
2023-09-10T20:41:35.561Z,13.88
2023-09-10T20:44:03.789Z,13.73
2023-09-10T20:46:34.641Z,24.55
2023-09-10T20:49:04.048Z,14.40
2023-09-10T20:51:33.353Z,16.70
2023-09-10T20:54:03.871Z,12.98
2023-09-10T20:56:32.509Z,16.88
2023-09-10T20:59:03.585Z,17.42
2023-09-10T21:01:32.348Z,13.38
2023-09-10T21:04:03.428Z,12.48
2023-09-10T21:06:31.828Z,14.20
2023-09-10T21:09:00.158Z,18.07
2023-09-10T21:11:29.825Z,17.10
2023-09-10T21:13:58.023Z,17.70
2023-09-10T21:16:26.133Z,15.32
2023-09-10T21:18:54.243Z,16.83
2023-09-10T21:21:22.283Z,16.38
2023-09-10T21:23:50.387Z,13.40
2023-09-10T21:26:18.538Z,16.30
2023-09-10T21:28:48.300Z,19.08
2023-09-10T21:31:16.464Z,18.00
2023-09-10T21:33:44.582Z,14.50
2023-09-10T21:36:12.657Z,13.93
2023-09-10T21:38:41.186Z,18.95
2023-09-10T21:41:09.634Z,18.70
2023-09-10T21:43:37.899Z,12.50
2023-09-10T21:46:10.476Z,15.73
2023-09-10T21:48:39.376Z,13.73
2023-09-10T21:51:07.752Z,16.00
2023-09-10T21:53:35.916Z,16.50
2023-09-10T21:56:06.135Z,18.73
2023-09-10T21:58:34.254Z,19.67
2023-09-10T22:01:02.315Z,20.77
2023-09-10T22:03:31.799Z,16.23
2023-09-10T22:05:59.962Z,19.15
2023-09-10T22:08:28.441Z,17.98
2023-09-10T22:10:59.947Z,16.60
2023-09-10T22:13:28.432Z,23.45
2023-09-10T22:15:56.673Z,21.70
2023-09-10T22:18:25.593Z,16.53
2023-09-10T22:20:55.605Z,15.35
2023-09-10T22:23:24.086Z,12.27
2023-09-10T22:25:52.257Z,14.02
2023-09-10T22:28:22.693Z,12.95
2023-09-10T22:30:51.211Z,18.63
2023-09-10T22:33:19.268Z,18.45
2023-09-10T22:35:47.853Z,15.67
2023-09-10T22:38:17.732Z,15.48
2023-09-10T22:40:46.345Z,21.65
2023-09-10T22:43:14.442Z,12.07
2023-09-10T22:45:42.522Z,16.48
2023-09-10T22:48:10.811Z,17.63
2023-09-10T22:50:38.965Z,13.98
2023-09-10T22:53:07.070Z,14.07
2023-09-10T22:55:36.516Z,12.60
2023-09-10T22:58:04.809Z,18.30
2023-09-10T23:00:32.964Z,15.70
2023-09-10T23:03:01.115Z,19.25
2023-09-10T23:05:29.744Z,16.85
2023-09-10T23:07:59.360Z,21.58
2023-09-10T23:10:28.050Z,18.73
2023-09-10T23:12:59.259Z,20.83
2023-09-10T23:15:27.630Z,13.88
2023-09-10T23:17:57.920Z,17.60
2023-09-10T23:20:26.719Z,19.67
2023-09-10T23:22:59.905Z,23.83
2023-09-10T23:25:28.370Z,20.05
2023-09-10T23:27:58.302Z,17.38
2023-09-10T23:30:26.418Z,13.00
2023-09-10T23:32:56.411Z,18.30
2023-09-10T23:35:24.744Z,18.70
2023-09-10T23:37:52.946Z,22.90
2023-09-10T23:40:21.859Z,14.95
2023-09-10T23:42:50.630Z,18.85
2023-09-10T23:45:20.491Z,21.08
2023-09-10T23:47:48.678Z,18.77
2023-09-10T23:50:16.873Z,21.42
2023-09-10T23:52:45.047Z,18.35
2023-09-10T23:55:13.122Z,17.73
2023-09-10T23:57:41.663Z,17.25
